Terminal Aerodrome Forecast
Issued by NWS

Home | Current Version | Previous Version | Text Only | Print | Product List | Glossary On
Versions: 1 2 3 4 5 6 7 8 9 10 11 12 13
860
FTAK31 PAJN 252320
TAFAKT
TAF
PAKT 252320Z 2600/2624 12013KT P6SM SCT060 BKN100
     FM260200 12010KT P6SM VCSH OVC070 WS020/11025KT
     FM261000 15013KT P6SM -RA SCT030 OVC050
     FM262000 15015G25KT 6SM -RA BKN025 OVC040 WS020/14035KT
     FM262300 15015G25KT 4SM -RA BKN015 OVC030 WS020/14035KT=

USA.gov is the U.S. government's official web portal to all federal, state and local government web resources and services.